Airfield :
LOGIN :

Register | Disclaimer

   EN    FR    IT 

 










Legend :    VFR   Marginal VFR   IFR   Intensive IFR   Very Intensive IFR
Visi :
Ceiling :
>= 8 km
>= 3000ft
5 to 8 km
1000 to 3000 ft
1500m to 5 km
500 to 1000 ft
800 to 1500m
200 to 500 ft
< 800m
< 200 ft
Symbols :   Thunderstorms  Fog  Heavy snow  Heavy precipitations  Wind > 20 kt
SIGMETs :     Misc.  Thunderstorms  Icing  Turbulence  Mountain Waves  Volcanic Ashes







- Airport Elevation : 194 ft
- IATA code : ANE
- Download approach charts


LFJR - Angers Marcé

CURRENT METAR :
  • 210930Z AUTO 05005KT CAVOK 12/07 Q1034 NOSIG

EXPIRED METARs :
  • 210900Z AUTO 07007KT CAVOK 10/06 Q1034 NOSIG
  • 210830Z AUTO 06006KT CAVOK 09/06 Q1034 NOSIG
  • 210800Z AUTO 05005KT 020V080 CAVOK 08/06 Q1033 NOSIG
  • 210730Z AUTO 05004KT 010V070 9000 NSC 07/06 Q1033 NOSIG
  • 210700Z AUTO 06004KT 8000 FEW038 06/05 Q1033 NOSIG

TAF TAF LFJR
Valid from the 21 at 09:00 until the 21 at 18:00 UTC


210800Z 2109/2118 04005KT CAVOK
No reported NOTAMs for that airfield.



MET'MAP, your aeronautical weather chart ! - Copyright ORBIFLY December 2007 - Disclaimer

ORBIFLY MET'MAP TEAM :

Programming & Development : Alexandra Zaïnal
Concept & Development : Baudouin d'Aumeries
Co-Development & Prog : Marc-Olivier Méhu
Technical & hardware support : Manuel Goepfert

Contact : metmap@orbifly.com




SOURCES & CREDITS :

   NOAA